Time;durP1;ratioP1;P1;durP2;ratioP2;P2;SDS_P1;SDS_P2;PMS_P1;PMS_P2;Temp;Humidity;BMP_temperature;BMP_pressure;BME280_temperature;BME280_humidity;BME280_pressure;Samples;Min_cycle;Max_cycle;Signal;HPM_P1;HPM_P2
2022/07/22 00:00:15;;;;;;;3.88;1.25;;;16.70;99.90;;;;;;7404341;19;20355;-90
2022/07/22 00:02:41;;;;;;;6.93;1.48;;;16.70;99.90;;;;;;7403466;19;20010;-89
2022/07/22 00:05:08;;;;;;;10.82;1.65;;;16.70;99.90;;;;;;7403374;19;20066;-90
2022/07/22 00:07:34;;;;;;;9.43;2.28;;;16.70;99.90;;;;;;7401376;19;20018;-89
2022/07/22 00:09:59;;;;;;;8.95;2.15;;;16.70;99.90;;;;;;7399224;19;20014;-89
2022/07/22 00:12:25;;;;;;;10.38;2.22;;;16.70;99.90;;;;;;7403233;19;20021;-90
2022/07/22 00:14:52;;;;;;;11.77;2.67;;;16.70;99.90;;;;;;7392808;19;20359;-91
2022/07/22 00:17:18;;;;;;;13.43;2.60;;;16.70;99.90;;;;;;7394567;19;20081;-89
2022/07/22 00:19:44;;;;;;;12.13;2.75;;;16.60;99.90;;;;;;7401542;19;20356;-90
2022/07/22 00:22:09;;;;;;;15.48;3.55;;;16.60;99.90;;;;;;7398846;19;20014;-90
2022/07/22 00:24:35;;;;;;;14.88;3.67;;;16.60;99.90;;;;;;7403065;19;20018;-91
2022/07/22 00:27:01;;;;;;;15.60;3.60;;;16.50;99.90;;;;;;7396857;19;20019;-90
2022/07/22 00:29:27;;;;;;;16.45;4.35;;;16.40;99.90;;;;;;7402917;19;20106;-89
2022/07/22 00:31:53;;;;;;;13.90;4.15;;;16.40;99.90;;;;;;7399100;19;20023;-89
2022/07/22 00:34:18;;;;;;;15.13;4.07;;;16.30;99.90;;;;;;7400277;19;20015;-90
2022/07/22 00:36:44;;;;;;;17.48;5.13;;;16.30;99.90;;;;;;7399834;19;20519;-90
2022/07/22 00:39:10;;;;;;;14.82;4.70;;;16.20;99.90;;;;;;7397300;19;20014;-90
2022/07/22 00:41:36;;;;;;;19.75;4.80;;;16.10;99.90;;;;;;7398620;19;20021;-89
2022/07/22 00:44:05;;;;;;;19.00;5.43;;;16.00;99.90;;;;;;7404793;19;20010;-88
2022/07/22 00:46:32;;;;;;;20.73;5.50;;;16.00;99.90;;;;;;7403396;19;20029;-90
2022/07/22 00:48:59;;;;;;;17.02;5.22;;;15.90;99.90;;;;;;7403922;19;20086;-90
2022/07/22 00:51:27;;;;;;;18.90;4.82;;;15.90;99.90;;;;;;7397242;19;20015;-91
2022/07/22 00:53:58;;;;;;;19.02;5.40;;;15.90;99.90;;;;;;7398237;19;20023;-90
2022/07/22 00:56:25;;;;;;;23.25;5.60;;;16.00;99.90;;;;;;7398554;19;20014;-89
2022/07/22 00:58:53;;;;;;;19.98;5.70;;;16.00;99.90;;;;;;7394441;19;20486;-91
2022/07/22 01:01:19;;;;;;;20.52;5.60;;;16.10;99.90;;;;;;7398503;19;20018;-90
2022/07/22 01:03:45;;;;;;;23.55;5.53;;;16.10;99.90;;;;;;7396490;19;20432;-90
2022/07/22 01:06:11;;;;;;;15.98;5.20;;;16.10;99.90;;;;;;7402220;19;20007;-90
2022/07/22 01:08:38;;;;;;;17.98;4.53;;;16.10;99.90;;;;;;7397922;19;20371;-90
2022/07/22 01:11:12;;;;;;;18.25;4.28;;;16.20;99.90;;;;;;7401770;19;20014;-90
2022/07/22 01:13:40;;;;;;;19.08;4.88;;;16.20;99.90;;;;;;7397129;19;20479;-90
2022/07/22 01:16:08;;;;;;;17.60;4.63;;;16.20;99.90;;;;;;7398483;19;20018;-90
2022/07/22 01:18:35;;;;;;;20.48;5.10;;;16.20;99.90;;;;;;7390196;19;20039;-90
2022/07/22 01:21:01;;;;;;;17.23;4.97;;;16.20;99.90;;;;;;7395519;19;20014;-91
2022/07/22 01:23:27;;;;;;;19.10;4.22;;;16.20;99.90;;;;;;7398693;19;20010;-90
2022/07/22 01:25:52;;;;;;;16.90;4.05;;;16.20;99.90;;;;;;7396030;19;20070;-91
2022/07/22 01:28:19;;;;;;;36.20;5.68;;;16.30;99.90;;;;;;7398897;19;20022;-90
2022/07/22 01:30:45;;;;;;;15.93;4.15;;;16.40;99.90;;;;;;7398166;19;20045;-90
2022/07/22 01:33:10;;;;;;;16.35;4.45;;;16.40;99.90;;;;;;7401147;19;20014;-91
2022/07/22 01:35:36;;;;;;;15.48;4.15;;;16.40;99.90;;;;;;7398196;19;20011;-91
2022/07/22 01:38:03;;;;;;;17.27;4.47;;;16.30;99.90;;;;;;7395141;19;20106;-91
2022/07/22 01:40:28;;;;;;;17.75;4.63;;;16.40;99.90;;;;;;7395054;19;20047;-92
2022/07/22 01:42:54;;;;;;;16.85;4.88;;;16.40;99.90;;;;;;7396812;19;20019;-91
2022/07/22 01:45:20;;;;;;;13.35;3.97;;;16.40;99.90;;;;;;7395908;19;20011;-91
2022/07/22 01:47:46;;;;;;;13.23;4.47;;;16.30;99.90;;;;;;7398539;19;20021;-90
2022/07/22 01:50:12;;;;;;;16.02;4.95;;;16.30;99.90;;;;;;7396631;19;20090;-90
2022/07/22 01:52:39;;;;;;;19.33;5.40;;;16.40;99.90;;;;;;7396333;19;20027;-90
2022/07/22 01:55:06;;;;;;;16.02;4.53;;;16.40;99.90;;;;;;7392921;19;20510;-90
2022/07/22 01:57:32;;;;;;;19.92;4.82;;;16.40;99.90;;;;;;7394528;19;20014;-89
2022/07/22 01:59:58;;;;;;;19.27;4.68;;;16.40;99.90;;;;;;7395607;19;20010;-91
2022/07/22 02:02:23;;;;;;;14.35;4.50;;;16.40;99.90;;;;;;7399179;19;20036;-92
2022/07/22 02:04:49;;;;;;;13.63;4.00;;;16.40;99.90;;;;;;7394592;19;20019;-90
2022/07/22 02:07:15;;;;;;;12.32;3.55;;;16.40;99.90;;;;;;7393591;19;20014;-92
2022/07/22 02:09:41;;;;;;;12.60;3.92;;;16.40;99.90;;;;;;7399864;19;20078;-91
2022/07/22 02:12:08;;;;;;;12.88;3.65;;;16.30;99.90;;;;;;7396211;19;20124;-91
2022/07/22 02:14:34;;;;;;;21.58;4.05;;;16.30;99.90;;;;;;7393053;19;20018;-91
2022/07/22 02:17:00;;;;;;;16.38;3.70;;;16.40;99.90;;;;;;7395960;19;20398;-92
2022/07/22 02:19:26;;;;;;;17.38;3.95;;;16.40;99.90;;;;;;7391692;19;20042;-92
2022/07/22 02:21:52;;;;;;;12.95;3.85;;;16.40;99.90;;;;;;7393155;19;20034;-92
2022/07/22 02:24:18;;;;;;;16.95;3.88;;;16.40;99.90;;;;;;7397270;19;20018;-91
2022/07/22 02:26:43;;;;;;;13.13;3.90;;;16.40;99.90;;;;;;7384671;19;20356;-92
2022/07/22 02:29:09;;;;;;;14.68;3.75;;;16.40;99.90;;;;;;7388300;19;20010;-90
2022/07/22 02:31:35;;;;;;;13.30;3.83;;;16.40;99.90;;;;;;7396769;19;20442;-91
2022/07/22 02:34:01;;;;;;;10.20;3.25;;;16.30;99.90;;;;;;7394598;19;20018;-91
2022/07/22 02:36:27;;;;;;;12.20;3.20;;;16.30;99.90;;;;;;7396701;19;20038;-92
2022/07/22 02:38:53;;;;;;;13.20;3.38;;;16.30;99.90;;;;;;7399834;19;20018;-92
2022/07/22 02:41:18;;;;;;;13.45;3.50;;;16.30;99.90;;;;;;7412658;19;20066;-91
2022/07/22 02:43:44;;;;;;;9.07;2.80;;;16.30;99.90;;;;;;7395238;19;20034;-91
2022/07/22 02:46:10;;;;;;;13.13;3.30;;;16.30;99.90;;;;;;7395614;19;20019;-91
2022/07/22 02:48:36;;;;;;;13.80;2.95;;;16.30;99.90;;;;;;7393378;19;20015;-92
2022/07/22 02:51:03;;;;;;;9.82;3.22;;;16.30;99.90;;;;;;7392007;19;20018;-91
2022/07/22 02:53:29;;;;;;;15.38;3.60;;;16.30;99.90;;;;;;7391809;19;20597;-91
2022/07/22 02:55:54;;;;;;;12.50;2.60;;;16.30;99.90;;;;;;7397358;19;20015;-91
2022/07/22 02:58:20;;;;;;;11.45;2.85;;;16.30;99.90;;;;;;7395496;19;20575;-91
2022/07/22 03:00:46;;;;;;;10.55;3.03;;;16.30;99.90;;;;;;7395982;19;20026;-92
2022/07/22 03:03:12;;;;;;;12.07;2.97;;;16.30;99.90;;;;;;7391564;19;20018;-92
2022/07/22 03:05:38;;;;;;;16.65;3.50;;;16.40;99.90;;;;;;7390843;19;20025;-92
2022/07/22 03:08:04;;;;;;;15.95;3.90;;;16.40;99.90;;;;;;7388485;19;20077;-91
2022/07/22 03:10:29;;;;;;;10.50;3.20;;;16.40;99.90;;;;;;7388140;19;20022;-92
2022/07/22 03:12:56;;;;;;;11.88;3.08;;;16.40;99.90;;;;;;7386938;19;20011;-90
2022/07/22 03:15:21;;;;;;;11.48;3.42;;;16.30;99.90;;;;;;7391751;19;20073;-93
2022/07/22 03:17:48;;;;;;;11.13;3.03;;;16.30;99.90;;;;;;7385231;19;20018;-92
2022/07/22 03:20:14;;;;;;;13.82;2.95;;;16.30;99.90;;;;;;7393469;19;20082;-91
2022/07/22 03:22:40;;;;;;;11.07;3.33;;;16.40;99.90;;;;;;7391448;19;20077;-92
2022/07/22 03:25:06;;;;;;;17.67;3.83;;;16.40;99.90;;;;;;7392712;19;20494;-92
2022/07/22 03:27:32;;;;;;;13.25;3.45;;;16.30;99.90;;;;;;7393003;19;20018;-91
2022/07/22 03:29:58;;;;;;;15.77;3.28;;;16.30;99.90;;;;;;7395114;19;20026;-92
2022/07/22 03:32:23;;;;;;;18.13;3.25;;;16.20;99.90;;;;;;7391874;19;20014;-91
2022/07/22 03:34:49;;;;;;;12.63;2.97;;;16.20;99.90;;;;;;7389749;19;20391;-92
2022/07/22 03:37:15;;;;;;;10.60;2.88;;;16.20;99.90;;;;;;7390596;19;20018;-91
2022/07/22 03:39:41;;;;;;;10.07;2.95;;;16.20;99.90;;;;;;7394852;19;20015;-91
2022/07/22 03:42:07;;;;;;;8.63;2.70;;;16.20;99.90;;;;;;7395841;19;20506;-91
2022/07/22 03:44:32;;;;;;;10.57;2.67;;;16.20;99.90;;;;;;7390189;19;20007;-91
2022/07/22 03:46:58;;;;;;;7.80;2.15;;;16.20;99.90;;;;;;7390971;19;20043;-92
2022/07/22 03:49:24;;;;;;;9.43;2.22;;;16.20;99.90;;;;;;7395127;19;20488;-91
2022/07/22 03:51:50;;;;;;;14.60;2.83;;;16.10;99.90;;;;;;7394280;19;20023;-91
2022/07/22 03:54:16;;;;;;;10.75;2.53;;;16.20;99.90;;;;;;7391971;19;20081;-90
2022/07/22 03:56:42;;;;;;;11.45;2.25;;;16.20;99.90;;;;;;7389792;19;20019;-91
2022/07/22 03:59:08;;;;;;;10.13;2.30;;;16.10;99.90;;;;;;7393039;19;20015;-91
2022/07/22 04:01:33;;;;;;;10.18;2.38;;;16.10;99.90;;;;;;7392060;19;20405;-91
2022/07/22 04:03:59;;;;;;;8.57;2.03;;;16.10;99.90;;;;;;7392445;19;20011;-92
2022/07/22 04:06:25;;;;;;;10.00;2.42;;;16.10;99.90;;;;;;7395266;19;20015;-93
2022/07/22 04:08:51;;;;;;;9.10;2.20;;;16.10;99.90;;;;;;7393423;19;20021;-92
2022/07/22 04:11:17;;;;;;;10.20;2.80;;;16.10;99.90;;;;;;7393203;19;20015;-90
2022/07/22 04:13:42;;;;;;;11.20;2.50;;;16.10;99.90;;;;;;7390553;19;20019;-92
2022/07/22 04:16:08;;;;;;;9.35;2.47;;;16.10;99.90;;;;;;7388945;19;20026;-92
2022/07/22 04:18:35;;;;;;;9.63;2.08;;;16.10;99.90;;;;;;7389965;19;20479;-91
2022/07/22 04:21:00;;;;;;;10.80;2.40;;;16.10;99.90;;;;;;7396457;19;20011;-91
2022/07/22 04:23:26;;;;;;;10.15;2.33;;;16.10;99.90;;;;;;7390309;19;20011;-92
2022/07/22 04:25:52;;;;;;;8.73;2.40;;;16.20;99.90;;;;;;7391683;19;20031;-92
2022/07/22 04:28:18;;;;;;;9.68;2.42;;;16.20;99.90;;;;;;7394954;19;20033;-93
2022/07/22 04:30:44;;;;;;;11.13;2.50;;;16.20;99.90;;;;;;7395993;19;20022;-92
2022/07/22 04:33:10;;;;;;;9.73;2.45;;;16.30;99.90;;;;;;7403450;19;20034;-92
2022/07/22 04:35:36;;;;;;;10.43;2.72;;;16.30;99.90;;;;;;7412091;19;20078;-91
2022/07/22 04:38:02;;;;;;;10.23;2.60;;;16.20;99.90;;;;;;7405004;19;20018;-92
2022/07/22 04:40:31;;;;;;;11.07;2.88;;;16.20;99.90;;;;;;7399094;19;20014;-90
2022/07/22 04:42:56;;;;;;;11.00;3.00;;;16.30;99.90;;;;;;7395416;19;20128;-91
2022/07/22 04:45:22;;;;;;;10.10;2.63;;;16.20;99.90;;;;;;7397737;19;20025;-93
2022/07/22 04:47:48;;;;;;;10.27;2.75;;;16.30;99.90;;;;;;7393462;19;20018;-93
2022/07/22 04:50:14;;;;;;;7.07;2.30;;;16.40;99.90;;;;;;7397397;19;20053;-89
2022/07/22 04:52:40;;;;;;;12.10;2.65;;;16.40;99.90;;;;;;7394921;19;20010;-91
2022/07/22 04:55:06;;;;;;;9.73;2.30;;;16.30;99.90;;;;;;7398733;19;20022;-92
2022/07/22 04:57:32;;;;;;;8.90;2.17;;;16.40;99.90;;;;;;7399300;19;20018;-92
2022/07/22 04:59:58;;;;;;;10.85;2.42;;;16.40;99.90;;;;;;7398787;19;20477;-92
2022/07/22 05:02:24;;;;;;;9.05;2.47;;;16.50;99.90;;;;;;7397935;19;20019;-92
2022/07/22 05:04:49;;;;;;;14.25;3.20;;;16.50;99.90;;;;;;7399718;19;20033;-92
2022/07/22 05:07:15;;;;;;;7.85;1.98;;;16.50;99.90;;;;;;7397128;19;20010;-92
2022/07/22 05:09:41;;;;;;;13.63;2.70;;;16.50;99.90;;;;;;7400135;19;20011;-91
2022/07/22 05:12:07;;;;;;;9.10;2.58;;;16.50;99.90;;;;;;7400233;19;20016;-92
2022/07/22 05:14:33;;;;;;;9.55;2.95;;;16.40;99.90;;;;;;7398561;19;20724;-92
2022/07/22 05:16:59;;;;;;;10.18;2.40;;;16.50;99.90;;;;;;7398940;19;20011;-92
2022/07/22 05:19:25;;;;;;;7.32;2.20;;;16.60;99.90;;;;;;7398860;19;20028;-92
2022/07/22 05:21:51;;;;;;;8.88;2.17;;;16.70;99.90;;;;;;7397317;19;20010;-92
2022/07/22 05:24:17;;;;;;;10.50;2.63;;;16.80;99.90;;;;;;7397019;19;20539;-92
2022/07/22 05:26:43;;;;;;;9.32;2.63;;;16.80;99.90;;;;;;7396666;19;20101;-92
2022/07/22 05:29:09;;;;;;;9.98;2.30;;;16.80;99.90;;;;;;7400112;19;20010;-92
2022/07/22 05:31:35;;;;;;;9.70;2.83;;;16.80;99.90;;;;;;7397694;19;20011;-92
2022/07/22 05:34:03;;;;;;;12.13;2.60;;;16.80;99.90;;;;;;7398852;19;20019;-93
2022/07/22 05:36:29;;;;;;;7.20;2.10;;;16.80;99.90;;;;;;7398681;19;20026;-91
2022/07/22 05:38:55;;;;;;;8.23;1.88;;;16.80;99.90;;;;;;7394151;19;20506;-92
2022/07/22 05:41:21;;;;;;;9.57;1.98;;;16.80;99.90;;;;;;7396906;19;20014;-91
2022/07/22 05:43:49;;;;;;;6.38;1.80;;;16.70;99.90;;;;;;7394788;19;20030;-92
2022/07/22 05:46:15;;;;;;;8.43;2.28;;;16.80;99.90;;;;;;7400796;19;20011;-92
2022/07/22 05:48:41;;;;;;;6.07;1.80;;;16.80;99.90;;;;;;7398319;19;20468;-92
2022/07/22 05:51:12;;;;;;;9.88;2.60;;;16.90;99.90;;;;;;7396561;19;20081;-90
2022/07/22 05:53:38;;;;;;;5.90;2.20;;;16.80;99.90;;;;;;7396621;19;20017;-89
2022/07/22 05:56:05;;;;;;;8.52;2.22;;;16.90;99.90;;;;;;7397712;19;20014;-90
2022/07/22 05:58:30;;;;;;;10.20;2.08;;;16.80;99.90;;;;;;7400457;19;20477;-89
2022/07/22 06:00:58;;;;;;;9.82;2.20;;;16.90;99.90;;;;;;7391475;19;20042;-93
2022/07/22 06:03:24;;;;;;;6.10;1.63;;;16.90;99.90;;;;;;7395589;19;20014;-90
2022/07/22 06:05:50;;;;;;;487.75;34.33;;;17.00;99.90;;;;;;7397256;19;20066;-91
2022/07/22 06:08:16;;;;;;;16.05;2.53;;;17.00;99.90;;;;;;7398534;19;20002;-86
2022/07/22 06:10:41;;;;;;;7.75;2.00;;;17.20;99.90;;;;;;7393539;19;20728;-94
2022/07/22 06:13:09;;;;;;;7.68;1.83;;;17.50;99.90;;;;;;7394209;19;20359;-92
2022/07/22 06:15:34;;;;;;;15.75;3.75;;;17.60;99.90;;;;;;7396369;19;20026;-94
2022/07/22 06:18:00;;;;;;;8.55;1.70;;;17.70;99.90;;;;;;7398640;19;20376;-91
2022/07/22 06:20:28;;;;;;;7.82;1.80;;;17.80;99.90;;;;;;7402430;19;20445;-96
2022/07/22 06:22:54;;;;;;;22.85;2.75;;;17.80;99.90;;;;;;7404730;19;20014;-96
2022/07/22 06:25:20;;;;;;;7.53;1.80;;;17.80;99.90;;;;;;7409724;19;20014;-96
2022/07/22 06:27:45;;;;;;;8.15;2.22;;;17.80;99.90;;;;;;7399303;19;20007;-89
2022/07/22 06:30:12;;;;;;;8.27;2.10;;;17.70;99.90;;;;;;7391711;19;20017;-88
2022/07/22 06:32:37;;;;;;;6.00;1.95;;;17.70;99.90;;;;;;7392664;19;20019;-89
2022/07/22 06:35:04;;;;;;;7.78;2.10;;;17.80;99.90;;;;;;7392986;19;20025;-90
2022/07/22 06:37:30;;;;;;;8.10;1.65;;;17.90;99.90;;;;;;7394209;19;20082;-90
2022/07/22 06:39:55;;;;;;;9.20;1.80;;;17.90;99.90;;;;;;7391161;19;20035;-88
2022/07/22 06:42:22;;;;;;;7.88;1.83;;;17.90;99.90;;;;;;7395228;19;20014;-89
2022/07/22 06:44:48;;;;;;;8.25;1.80;;;17.90;99.90;;;;;;7397903;19;20014;-90
2022/07/22 06:47:14;;;;;;;5.85;1.60;;;17.80;99.90;;;;;;7394358;19;20021;-88
2022/07/22 06:49:40;;;;;;;8.98;1.75;;;17.80;99.90;;;;;;7391016;19;20019;-90
2022/07/22 06:52:06;;;;;;;7.72;2.15;;;17.80;99.90;;;;;;7388621;19;20074;-90
2022/07/22 06:54:32;;;;;;;6.28;1.90;;;18.00;99.90;;;;;;7389144;19;20002;-90
2022/07/22 06:56:58;;;;;;;5.82;1.67;;;18.10;99.90;;;;;;7388236;19;20067;-90
2022/07/22 06:59:24;;;;;;;8.77;2.22;;;18.30;99.90;;;;;;7387276;19;20011;-90
2022/07/22 07:01:50;;;;;;;5.40;1.70;;;18.40;99.90;;;;;;7392936;19;20370;-90
2022/07/22 07:04:18;;;;;;;5.97;1.75;;;18.40;99.90;;;;;;7396805;19;20498;-90
2022/07/22 07:06:44;;;;;;;6.60;1.70;;;18.40;99.90;;;;;;7391927;19;20085;-89
2022/07/22 07:09:10;;;;;;;6.75;1.40;;;18.30;99.90;;;;;;7393649;19;20088;-90
2022/07/22 07:11:36;;;;;;;7.85;1.38;;;18.20;99.90;;;;;;7394226;19;20034;-89
2022/07/22 07:14:02;;;;;;;5.90;1.63;;;18.20;99.90;;;;;;7391365;19;20022;-89
2022/07/22 07:16:29;;;;;;;5.45;1.27;;;18.20;99.90;;;;;;7393818;19;20031;-90
2022/07/22 07:18:55;;;;;;;4.47;1.35;;;18.30;99.90;;;;;;7392705;19;20018;-90
2022/07/22 07:21:22;;;;;;;5.20;1.40;;;18.20;99.90;;;;;;7392731;19;20499;-89
2022/07/22 07:23:48;;;;;;;8.13;1.67;;;18.10;99.90;;;;;;7397221;19;20011;-89
2022/07/22 07:26:15;;;;;;;4.00;1.52;;;18.20;99.90;;;;;;7392783;19;20053;-89
2022/07/22 07:28:41;;;;;;;6.40;1.45;;;18.30;99.90;;;;;;7393896;19;20363;-89
2022/07/22 07:31:07;;;;;;;7.40;1.45;;;18.40;99.90;;;;;;7390391;19;20018;-89
2022/07/22 07:33:34;;;;;;;6.90;1.30;;;18.40;99.90;;;;;;7393864;19;20018;-90
2022/07/22 07:36:00;;;;;;;5.32;1.63;;;18.60;99.90;;;;;;7390838;19;20015;-90
2022/07/22 07:38:26;;;;;;;6.13;1.25;;;18.60;99.90;;;;;;7386541;19;20369;-89
2022/07/22 07:40:52;;;;;;;5.07;3.50;;;18.60;99.90;;;;;;7390475;19;20074;-90
2022/07/22 07:43:20;;;;;;;6.45;2.55;;;18.60;99.90;;;;;;7390848;19;20501;-89
2022/07/22 07:45:46;;;;;;;6.13;4.75;;;18.60;99.90;;;;;;7389840;19;20014;-88
2022/07/22 07:48:11;;;;;;;6.45;3.90;;;18.40;99.90;;;;;;7390098;19;20026;-89
2022/07/22 07:50:37;;;;;;;5.05;1.20;;;18.50;99.90;;;;;;7391605;19;20092;-90
2022/07/22 07:53:03;;;;;;;3.60;1.20;;;18.70;99.90;;;;;;7392691;19;20356;-88
2022/07/22 07:55:29;;;;;;;6.38;1.20;;;19.00;99.90;;;;;;7391263;19;20019;-89
2022/07/22 07:57:55;;;;;;;4.28;1.13;;;19.00;99.90;;;;;;7397021;19;20010;-89
2022/07/22 08:00:26;;;;;;;5.35;1.15;;;19.00;99.90;;;;;;7390435;19;20090;-89
2022/07/22 08:02:52;;;;;;;5.22;1.10;;;19.00;99.90;;;;;;7392598;19;20018;-88
2022/07/22 08:05:19;;;;;;;6.85;1.50;;;18.90;99.90;;;;;;7394235;19;20010;-90
2022/07/22 08:07:45;;;;;;;9.45;5.18;;;18.90;99.90;;;;;;7398024;19;20025;-88
2022/07/22 08:10:11;;;;;;;5.85;3.20;;;19.00;99.90;;;;;;7395927;19;20019;-89
2022/07/22 08:12:37;;;;;;;4.80;1.48;;;19.00;99.90;;;;;;7396202;19;20022;-88
2022/07/22 08:15:03;;;;;;;4.63;1.10;;;19.00;99.90;;;;;;7391870;19;20010;-90
2022/07/22 08:17:29;;;;;;;7.07;1.20;;;19.00;99.90;;;;;;7396347;19;20106;-89
2022/07/22 08:19:55;;;;;;;4.57;1.10;;;19.10;99.90;;;;;;7395140;19;20018;-89
2022/07/22 08:22:22;;;;;;;4.55;1.23;;;19.10;99.90;;;;;;7399575;19;20028;-89
2022/07/22 08:24:48;;;;;;;5.00;1.15;;;19.10;99.90;;;;;;7400662;19;20014;-89
2022/07/22 08:27:13;;;;;;;4.55;1.05;;;19.20;99.90;;;;;;7398650;19;20499;-90
2022/07/22 08:29:39;;;;;;;5.57;1.42;;;19.30;99.90;;;;;;7397944;19;20351;-89
2022/07/22 08:32:05;;;;;;;5.53;2.47;;;19.40;99.90;;;;;;7396983;19;20022;-89
2022/07/22 08:34:31;;;;;;;5.72;1.10;;;19.40;99.90;;;;;;7398859;19;20085;-89
2022/07/22 08:36:57;;;;;;;6.10;1.35;;;19.40;99.90;;;;;;7401111;19;20027;-89
2022/07/22 08:39:23;;;;;;;5.55;1.50;;;19.40;99.90;;;;;;7401255;19;20028;-89
2022/07/22 08:41:49;;;;;;;5.85;1.02;;;19.30;99.90;;;;;;7398258;19;20025;-89
2022/07/22 08:44:15;;;;;;;9.57;1.30;;;19.20;99.90;;;;;;7397046;19;20022;-89
2022/07/22 08:46:44;;;;;;;6.68;1.23;;;19.10;99.90;;;;;;7398588;19;20019;-90
2022/07/22 08:49:14;;;;;;;6.47;0.90;;;18.90;99.90;;;;;;7401433;19;20471;-89
2022/07/22 08:51:40;;;;;;;4.53;1.00;;;18.60;99.90;;;;;;7394949;19;20020;-89
2022/07/22 08:54:06;;;;;;;5.28;1.30;;;18.50;99.90;;;;;;7397473;19;20082;-89
2022/07/22 08:56:32;;;;;;;3.72;0.80;;;18.60;99.90;;;;;;7399881;19;20150;-87
2022/07/22 08:58:58;;;;;;;3.47;1.00;;;18.60;99.90;;;;;;7396618;19;20026;-89
2022/07/22 09:01:25;;;;;;;4.15;0.88;;;18.70;99.90;;;;;;7396303;19;20059;-89
2022/07/22 09:03:55;;;;;;;3.35;1.10;;;18.70;99.90;;;;;;7398903;19;20367;-88
2022/07/22 09:06:24;;;;;;;4.50;1.00;;;18.80;99.90;;;;;;7396438;19;20010;-88
2022/07/22 09:08:55;;;;;;;5.20;1.08;;;18.90;99.90;;;;;;7399201;19;20021;-89
2022/07/22 09:11:24;;;;;;;5.55;1.05;;;18.80;99.90;;;;;;7398642;19;20014;-88
2022/07/22 09:13:52;;;;;;;5.30;1.45;;;18.80;99.90;;;;;;7392941;19;20031;-89
2022/07/22 09:16:38;;;;;;;5.40;1.50;;;18.90;99.90;;;;;;7393426;19;20092;-89
2022/07/22 09:19:04;;;;;;;4.75;1.08;;;18.80;99.90;;;;;;7384446;19;20385;-88
2022/07/22 09:21:30;;;;;;;4.53;1.20;;;18.90;99.90;;;;;;7394103;19;20017;-89
2022/07/22 09:23:57;;;;;;;5.40;1.10;;;18.90;99.90;;;;;;7394531;19;20018;-88
2022/07/22 09:26:39;;;;;;;4.43;1.10;;;18.90;99.90;;;;;;7399202;19;20039;-89
2022/07/22 09:29:06;;;;;;;6.22;0.95;;;18.90;99.90;;;;;;7395439;19;20475;-88
2022/07/22 09:31:34;;;;;;;3.72;1.20;;;18.90;99.90;;;;;;7396628;19;20022;-89
2022/07/22 09:34:00;;;;;;;5.05;1.13;;;18.80;99.90;;;;;;7394232;19;20018;-89
2022/07/22 09:36:27;;;;;;;5.78;1.40;;;18.80;99.90;;;;;;7393292;19;20018;-89
2022/07/22 09:38:53;;;;;;;5.38;1.33;;;19.00;99.90;;;;;;7393458;19;20022;-90
2022/07/22 09:41:20;;;;;;;6.07;2.03;;;19.20;99.90;;;;;;7377134;19;20025;-89
2022/07/22 09:43:46;;;;;;;17.17;5.10;;;19.30;99.90;;;;;;7368925;19;20029;-89
2022/07/22 09:46:12;;;;;;;5.13;1.20;;;19.40;99.90;;;;;;7368584;19;20011;-89
2022/07/22 09:48:39;;;;;;;4.38;1.05;;;19.40;99.90;;;;;;7388858;19;20482;-87
2022/07/22 09:51:06;;;;;;;7.30;2.00;;;19.40;99.90;;;;;;7371605;19;20014;-89
2022/07/22 09:53:33;;;;;;;6.90;1.35;;;19.40;99.90;;;;;;7394990;19;20034;-88
2022/07/22 09:56:03;;;;;;;8.32;3.20;;;19.40;99.90;;;;;;7389829;19;20487;-87
2022/07/22 09:58:29;;;;;;;4.93;1.67;;;19.40;99.90;;;;;;7396858;19;20034;-87
2022/07/22 10:00:59;;;;;;;6.10;0.90;;;19.20;99.90;;;;;;7397870;19;20025;-87
2022/07/22 10:03:31;;;;;;;5.75;1.50;;;19.30;99.90;;;;;;7394016;19;20011;-88
2022/07/22 10:05:58;;;;;;;7.07;1.75;;;19.20;99.90;;;;;;7394810;19;20011;-87
2022/07/22 10:08:29;;;;;;;4.63;1.42;;;19.10;99.90;;;;;;7395891;19;20036;-86
2022/07/22 10:11:00;;;;;;;23.38;7.68;;;19.10;99.90;;;;;;7395931;19;20027;-88
2022/07/22 10:13:26;;;;;;;6.00;1.60;;;19.30;99.90;;;;;;7393101;19;20086;-88
2022/07/22 10:15:53;;;;;;;11.05;2.85;;;19.20;99.90;;;;;;7394495;19;20011;-88
2022/07/22 10:18:19;;;;;;;5.07;1.30;;;19.30;99.90;;;;;;7393020;19;20010;-88
2022/07/22 10:20:45;;;;;;;7.15;1.35;;;19.30;99.90;;;;;;7394905;19;20018;-88
2022/07/22 10:23:12;;;;;;;4.28;1.02;;;19.30;99.90;;;;;;7391374;19;20010;-87
2022/07/22 10:25:52;;;;;;;6.90;0.98;;;19.00;99.90;;;;;;7396509;19;20014;-88
2022/07/22 10:28:37;;;;;;;5.25;1.30;;;19.00;99.90;;;;;;7399904;19;20027;-93
2022/07/22 10:31:24;;;;;;;6.10;0.90;;;18.80;99.90;;;;;;7253279;19;20047;-96
2022/07/22 10:33:52;;;;;;;3.30;0.80;;;18.70;99.90;;;;;;7395152;19;20014;-90
2022/07/22 10:36:33;;;;;;;5.30;1.50;;;18.70;99.90;;;;;;7395987;19;20025;-90
2022/07/22 10:39:08;;;;;;;8.07;1.67;;;18.60;99.90;;;;;;7393034;19;20038;-93
2022/07/22 10:41:40;;;;;;;7.60;1.55;;;18.80;99.90;;;;;;7402096;19;20070;-96
2022/07/22 10:44:06;;;;;;;5.38;1.05;;;18.70;99.90;;;;;;7396419;19;20041;-93
2022/07/22 10:46:58;;;;;;;6.00;1.33;;;18.70;99.90;;;;;;7399508;19;20033;-93
2022/07/22 10:49:25;;;;;;;8.70;1.50;;;18.80;99.90;;;;;;7399396;19;20018;-93
2022/07/22 10:52:11;;;;;;;3.40;1.00;;;19.00;99.90;;;;;;7398195;19;20014;-91
2022/07/22 10:55:19;;;;;;;3.70;0.82;;;19.20;99.90;;;;;;7395329;19;20015;-96
2022/07/22 10:57:45;;;;;;;5.57;1.08;;;19.10;99.90;;;;;;7405021;19;20039;-92
2022/07/22 11:00:12;;;;;;;3.50;0.80;;;19.10;99.90;;;;;;7391917;19;20108;-91
2022/07/22 11:02:38;;;;;;;4.28;1.00;;;19.10;99.90;;;;;;7393313;19;20015;-91
2022/07/22 11:05:04;;;;;;;5.15;1.10;;;19.20;99.90;;;;;;7391469;19;20013;-93
2022/07/22 11:07:32;;;;;;;4.95;1.20;;;19.30;99.90;;;;;;7393200;19;20403;-92
2022/07/22 11:10:19;;;;;;;4.20;1.10;;;19.50;99.90;;;;;;7400486;19;20034;-90
2022/07/22 11:12:49;;;;;;;4.68;1.17;;;19.60;99.90;;;;;;7393702;19;20022;-92
2022/07/22 11:15:16;;;;;;;5.50;0.93;;;19.60;99.90;;;;;;7394349;19;20006;-93
2022/07/22 11:17:41;;;;;;;3.78;1.13;;;19.70;99.90;;;;;;7394022;19;20041;-88
2022/07/22 11:20:09;;;;;;;6.00;1.30;;;19.90;99.90;;;;;;7391111;19;20498;-91
2022/07/22 11:22:36;;;;;;;4.82;1.00;;;20.00;99.90;;;;;;7393942;19;20042;-90
2022/07/22 11:25:08;;;;;;;5.95;1.55;;;20.10;99.90;;;;;;7389906;19;20011;-94
2022/07/22 11:27:35;;;;;;;4.45;1.10;;;20.20;99.90;;;;;;7395213;19;20014;-90
2022/07/22 11:30:04;;;;;;;4.80;1.02;;;20.20;99.90;;;;;;7391307;19;20015;-91
2022/07/22 11:32:31;;;;;;;4.55;0.80;;;20.10;99.90;;;;;;7396626;19;20098;-96
2022/07/22 11:34:58;;;;;;;4.68;1.10;;;19.90;99.90;;;;;;7389689;19;20014;-92
2022/07/22 11:37:25;;;;;;;2.88;0.93;;;19.90;99.90;;;;;;7392337;19;20026;-90
2022/07/22 11:39:58;;;;;;;4.85;1.20;;;19.90;99.90;;;;;;7396704;19;20026;-95
2022/07/22 11:42:27;;;;;;;;;;;19.90;99.90;;;;;;7395236;19;20426;-96
2022/07/22 11:44:53;;;;;;;3.47;1.20;;;20.00;99.90;;;;;;7400552;19;19923;-96
2022/07/22 11:47:19;;;;;;;4.35;1.05;;;20.20;99.90;;;;;;7402281;19;20122;-93
2022/07/22 11:49:47;;;;;;;6.18;1.05;;;19.90;99.90;;;;;;7401190;19;20018;-90
2022/07/22 11:52:14;;;;;;;4.40;0.98;;;19.80;99.90;;;;;;7391381;19;20018;-89
2022/07/22 11:54:41;;;;;;;8.40;1.38;;;19.70;99.90;;;;;;7390131;19;20022;-90
2022/07/22 11:57:07;;;;;;;5.53;0.93;;;19.80;99.90;;;;;;7397937;19;20526;-93
2022/07/22 11:59:34;;;;;;;5.07;1.23;;;20.40;99.90;;;;;;7391635;19;20028;-85
2022/07/22 12:02:02;;;;;;;4.65;0.85;;;20.40;99.90;;;;;;7394103;19;20014;-91
2022/07/22 12:04:30;;;;;;;3.60;0.88;;;19.90;99.90;;;;;;7368824;19;20474;-89
2022/07/22 12:06:58;;;;;;;4.25;1.10;;;20.00;99.90;;;;;;7375397;19;20031;-95
2022/07/22 12:09:28;;;;;;;5.72;1.00;;;19.80;99.90;;;;;;7375181;19;20021;-90
2022/07/22 12:11:57;;;;;;;5.53;1.42;;;19.90;99.90;;;;;;7378163;19;20018;-88
2022/07/22 12:14:29;;;;;;;4.95;0.93;;;19.80;99.90;;;;;;7371792;19;20042;-86
2022/07/22 12:16:59;;;;;;;4.68;1.40;;;19.80;99.90;;;;;;7373132;19;20002;-95
2022/07/22 12:19:30;;;;;;;4.88;1.00;;;19.70;99.90;;;;;;7379332;19;20011;-90
2022/07/22 12:22:10;;;;;;;5.43;1.05;;;19.50;99.90;;;;;;7374306;19;20078;-86
2022/07/22 12:24:43;;;;;;;5.43;1.70;;;19.30;99.90;;;;;;7366622;19;20018;-88
2022/07/22 12:27:11;;;;;;;9.05;1.60;;;19.70;99.90;;;;;;7371692;19;20060;-91
2022/07/22 12:29:37;;;;;;;3.13;1.13;;;20.00;99.90;;;;;;7376069;19;20455;-89
2022/07/22 12:32:11;;;;;;;5.20;1.02;;;19.80;99.90;;;;;;7373301;19;20027;-82
2022/07/22 12:34:41;;;;;;;5.40;1.48;;;20.00;99.90;;;;;;7372228;19;20504;-81
2022/07/22 12:37:22;;;;;;;5.50;1.40;;;20.30;99.90;;;;;;7367318;19;20380;-81
2022/07/22 12:40:06;;;;;;;5.50;1.20;;;20.60;99.90;;;;;;7371996;19;20442;-82
2022/07/22 12:42:43;;;;;;;3.67;1.13;;;20.90;99.90;;;;;;7391033;19;20014;-81